Time;durP1;ratioP1;P1;durP2;ratioP2;P2;SDS_P1;SDS_P2;PMS_P1;PMS_P2;Temp;Humidity;BMP_temperature;BMP_pressure;BME280_temperature;BME280_humidity;BME280_pressure;Samples;Min_cycle;Max_cycle;Signal;HPM_P1;HPM_P2
2022/02/04 05:27:55;;;;;;;8.88;4.70;;;6.20;99.90;;;;;;4879329;29;20676;-74
2022/02/04 05:30:18;;;;;;;8.88;5.10;;;6.20;99.90;;;;;;4877759;29;20076;-78
2022/02/04 05:32:46;;;;;;;8.25;5.20;;;6.30;99.90;;;;;;4860782;29;20057;-74
2022/02/04 05:35:13;;;;;;;7.22;5.15;;;6.30;99.90;;;;;;4860651;29;20132;-76
2022/02/04 05:37:43;;;;;;;7.40;5.03;;;6.30;99.90;;;;;;4860619;29;20129;-76
2022/02/04 05:40:15;;;;;;;6.95;4.70;;;6.30;99.90;;;;;;4860883;29;20049;-77
2022/02/04 05:42:49;;;;;;;7.43;4.72;;;6.40;99.90;;;;;;4860746;29;20093;-74
2022/02/04 05:45:22;;;;;;;7.22;4.65;;;6.40;99.90;;;;;;4860861;29;20061;-76
2022/02/04 05:47:55;;;;;;;7.25;4.75;;;6.40;99.90;;;;;;4860931;29;20045;-75
2022/02/04 05:50:30;;;;;;;7.00;4.70;;;6.40;99.90;;;;;;4860508;29;20050;-74
2022/02/04 05:53:11;;;;;;;6.22;4.00;;;6.50;99.90;;;;;;4860277;29;20148;-74
2022/02/04 05:58:47;;;;;;;7.03;4.05;;;6.50;99.90;;;;;;4851621;29;20403;-76
2022/02/04 06:04:29;;;;;;;6.38;3.78;;;6.60;99.90;;;;;;4858584;29;20132;-77
2022/02/04 06:07:19;;;;;;;6.47;4.20;;;6.60;99.90;;;;;;4863946;29;20054;-74
2022/02/04 06:23:24;;;;;;;7.25;4.00;;;6.70;99.90;;;;;;4863589;29;20072;-77
2022/02/04 06:25:51;;;;;;;6.82;4.38;;;6.70;99.90;;;;;;4863349;29;20499;-75
2022/02/04 06:28:19;;;;;;;6.82;4.50;;;6.70;99.90;;;;;;4863302;29;20482;-76
2022/02/04 06:30:48;;;;;;;6.85;4.03;;;6.70;99.90;;;;;;4863696;29;20064;-73
2022/02/04 06:33:15;;;;;;;7.03;4.18;;;6.70;99.90;;;;;;4864395;29;20060;-75
2022/02/04 06:35:42;;;;;;;7.25;4.38;;;6.70;99.90;;;;;;4864135;29;20049;-74
2022/02/04 06:38:09;;;;;;;6.40;3.88;;;6.70;99.90;;;;;;4863227;29;20136;-74
2022/02/04 06:40:37;;;;;;;7.50;4.40;;;6.80;99.90;;;;;;4863348;29;20138;-75
2022/02/04 06:43:04;;;;;;;7.93;4.80;;;6.80;99.90;;;;;;4863459;29;20480;-76
2022/02/04 06:45:31;;;;;;;6.95;4.50;;;6.80;99.90;;;;;;4863296;29;20467;-73
2022/02/04 06:48:00;;;;;;;8.98;4.85;;;6.80;99.90;;;;;;4863154;29;20503;-76
2022/02/04 06:50:27;;;;;;;8.55;4.93;;;6.80;99.90;;;;;;4863188;29;20128;-74
2022/02/04 06:52:54;;;;;;;6.88;4.65;;;6.80;99.90;;;;;;4862654;29;20574;-74
2022/02/04 06:55:22;;;;;;;9.43;6.00;;;6.80;99.90;;;;;;4862844;29;20525;-75
2022/02/04 06:57:49;;;;;;;7.65;4.80;;;6.80;99.90;;;;;;4863137;29;20056;-76
2022/02/04 07:00:18;;;;;;;8.50;5.30;;;6.80;99.90;;;;;;4863149;29;20049;-76
2022/02/04 07:02:47;;;;;;;7.88;5.47;;;6.80;99.90;;;;;;4863358;29;20080;-75
2022/02/04 07:05:16;;;;;;;8.32;5.43;;;6.80;99.90;;;;;;4862968;29;20574;-78
2022/02/04 07:07:49;;;;;;;11.57;5.93;;;6.80;99.90;;;;;;4862879;29;20139;-73
2022/02/04 07:10:22;;;;;;;8.27;5.35;;;6.80;99.90;;;;;;4862747;29;20504;-75
2022/02/04 07:12:57;;;;;;;9.18;6.25;;;6.70;99.90;;;;;;4862903;29;20057;-75
2022/02/04 07:20:57;;;;;;;8.60;5.50;;;6.70;99.90;;;;;;4863179;29;20074;-74
2022/02/04 07:23:24;;;;;;;8.63;5.60;;;6.70;99.90;;;;;;4864390;29;20107;-73
2022/02/04 07:25:51;;;;;;;8.25;5.20;;;6.70;99.90;;;;;;4863361;29;20059;-76
2022/02/04 07:28:18;;;;;;;8.65;5.32;;;6.70;99.90;;;;;;4863027;29;20464;-74
2022/02/04 07:30:46;;;;;;;8.50;5.22;;;6.70;99.90;;;;;;4862539;29;20049;-73
2022/02/04 07:33:17;;;;;;;8.52;6.00;;;6.70;99.90;;;;;;4862542;29;20135;-74
2022/02/04 07:40:51;;;;;;;8.38;4.93;;;6.70;99.90;;;;;;4824042;29;20047;-74
2022/02/04 07:41:35;;;;;;;8.95;5.72;;;6.70;99.90;;;;;;4860747;29;20109;-74
2022/02/04 07:44:03;;;;;;;8.70;5.60;;;6.70;99.90;;;;;;4862240;29;20506;-74
2022/02/04 07:46:30;;;;;;;8.75;5.57;;;6.70;99.90;;;;;;4862541;29;20053;-74
2022/02/04 07:48:58;;;;;;;8.60;5.68;;;6.70;99.90;;;;;;4862209;29;20081;-76
2022/02/04 07:51:25;;;;;;;9.68;6.03;;;6.80;99.90;;;;;;4862335;29;20053;-75
2022/02/04 07:53:54;;;;;;;8.93;5.32;;;6.80;99.90;;;;;;4862166;29;20104;-75
2022/02/04 07:56:23;;;;;;;9.43;6.10;;;6.80;99.90;;;;;;4862170;29;20052;-76
2022/02/04 07:58:57;;;;;;;9.40;6.25;;;6.80;99.90;;;;;;4862202;29;20049;-78
2022/02/04 08:01:28;;;;;;;9.43;6.18;;;6.80;99.90;;;;;;4861709;29;20077;-74
2022/02/04 08:04:02;;;;;;;9.35;6.00;;;6.80;99.90;;;;;;4861718;29;20119;-74
2022/02/04 08:06:32;;;;;;;10.10;6.60;;;6.80;99.90;;;;;;4861693;29;20117;-74
2022/02/04 08:09:07;;;;;;;9.30;6.10;;;6.80;99.90;;;;;;4862352;29;20049;-75
2022/02/04 08:14:35;;;;;;;9.95;6.20;;;6.90;99.90;;;;;;4859739;29;20049;-74
2022/02/04 08:17:20;;;;;;;10.82;6.22;;;6.90;99.90;;;;;;4861845;29;20046;-75
2022/02/04 08:22:46;;;;;;;9.88;6.22;;;6.90;99.90;;;;;;4861739;29;20064;-75
2022/02/04 08:25:35;;;;;;;10.30;6.13;;;6.90;99.90;;;;;;4861672;29;20412;-75
2022/02/04 08:31:22;;;;;;;8.48;5.90;;;7.00;99.90;;;;;;4842237;29;20140;-76
2022/02/04 08:55:53;;;;;;;9.65;5.97;;;7.30;99.90;;;;;;4858743;29;20076;-75
2022/02/04 08:58:29;;;;;;;9.35;5.70;;;7.30;99.90;;;;;;4880322;29;20443;-74
2022/02/04 09:01:03;;;;;;;8.02;5.18;;;7.30;99.90;;;;;;4879678;29;20100;-76
2022/02/04 09:03:38;;;;;;;8.50;5.60;;;7.30;99.90;;;;;;4880409;29;20217;-75
2022/02/04 09:06:10;;;;;;;7.65;5.05;;;7.30;99.90;;;;;;4880184;29;20056;-76
2022/02/04 09:08:42;;;;;;;8.70;5.07;;;7.30;99.90;;;;;;4879868;29;20084;-75
2022/02/04 09:11:14;;;;;;;7.60;5.25;;;7.40;99.90;;;;;;4880270;29;20456;-74
2022/02/04 09:19:15;;;;;;;7.63;5.00;;;7.40;99.90;;;;;;4879352;29;20056;-75
2022/02/04 09:22:17;;;;;;;9.38;5.53;;;7.50;99.90;;;;;;4879542;29;20060;-74
2022/02/04 09:24:45;;;;;;;6.97;4.20;;;7.50;99.90;;;;;;4879223;29;20498;-76
2022/02/04 09:27:12;;;;;;;7.65;4.60;;;7.50;99.90;;;;;;4879450;29;20049;-74
2022/02/04 09:29:40;;;;;;;7.60;4.45;;;7.50;99.90;;;;;;4879486;29;20060;-74
2022/02/04 09:32:08;;;;;;;6.72;4.18;;;7.60;99.90;;;;;;4880882;29;20144;-75
2022/02/04 09:34:35;;;;;;;6.82;3.92;;;7.60;99.90;;;;;;4883336;29;20128;-74
2022/02/04 09:37:03;;;;;;;6.85;4.20;;;7.70;99.90;;;;;;4883245;29;20447;-75
2022/02/04 09:39:30;;;;;;;7.15;4.20;;;7.70;99.90;;;;;;4883159;29;20132;-74
2022/02/04 09:41:57;;;;;;;6.30;3.65;;;7.70;99.90;;;;;;4883424;29;20388;-74
2022/02/04 09:44:24;;;;;;;7.15;3.83;;;7.70;99.90;;;;;;4883562;29;20165;-78
2022/02/04 09:46:55;;;;;;;6.45;3.67;;;7.70;99.90;;;;;;4883480;29;20081;-74
2022/02/04 09:49:28;;;;;;;6.18;3.63;;;7.80;99.90;;;;;;4883277;29;20073;-75
2022/02/04 10:14:56;;;;;;;4.72;2.72;;;8.10;99.90;;;;;;4882318;29;20049;-76
2022/02/04 10:17:26;;;;;;;5.15;2.80;;;8.20;99.90;;;;;;4882791;29;20132;-74
2022/02/04 10:19:59;;;;;;;4.50;2.30;;;8.20;99.90;;;;;;4881877;29;20051;-76
2022/02/04 10:22:29;;;;;;;4.55;2.70;;;8.10;99.90;;;;;;4874654;29;20064;-74
2022/02/04 10:25:00;;;;;;;5.43;2.75;;;8.10;99.90;;;;;;4882706;29;20104;-78
2022/02/04 10:27:31;;;;;;;5.53;2.55;;;8.20;99.90;;;;;;4884478;29;20063;-76
2022/02/04 10:30:02;;;;;;;5.60;2.47;;;8.20;99.90;;;;;;4894103;29;20478;-77
2022/02/04 10:32:41;;;;;;;4.60;2.03;;;8.30;99.90;;;;;;4870349;29;20056;-76
2022/02/04 10:35:24;;;;;;;3.25;1.50;;;8.30;99.90;;;;;;4865501;29;20132;-76
2022/02/04 10:38:11;;;;;;;3.40;1.50;;;8.30;99.20;;;;;;4863330;29;20049;-76
2022/02/04 10:40:51;;;;;;;2.80;1.38;;;8.30;98.80;;;;;;4873487;29;20055;-80
2022/02/04 10:43:41;;;;;;;3.20;1.30;;;8.30;98.30;;;;;;4880419;29;20057;-76
2022/02/04 10:46:24;;;;;;;2.45;1.08;;;8.40;98.30;;;;;;4882106;29;20083;-77
2022/02/04 10:49:05;;;;;;;2.70;1.15;;;8.40;98.40;;;;;;4881957;29;20049;-75
2022/02/04 10:57:45;;;;;;;3.05;1.10;;;8.50;97.10;;;;;;4868376;29;20488;-75
2022/02/04 11:00:18;;;;;;;2.40;1.00;;;8.40;97.60;;;;;;4863351;29;20057;-73
2022/02/04 11:03:05;;;;;;;2.80;1.08;;;8.40;97.30;;;;;;4863203;29;20061;-76
2022/02/04 11:05:46;;;;;;;2.70;1.00;;;8.40;97.60;;;;;;4865940;29;20120;-77
2022/02/04 11:08:31;;;;;;;2.97;1.20;;;8.40;97.30;;;;;;4881305;29;20053;-77
2022/02/04 11:11:18;;;;;;;2.30;0.95;;;8.40;97.30;;;;;;4881413;29;20049;-76
2022/02/04 11:31:06;;;;;;;2.72;1.08;;;8.60;96.80;;;;;;4871989;29;20421;-78
2022/02/04 11:51:51;;;;;;;2.20;1.10;;;8.60;96.00;;;;;;4880500;29;20053;-77
2022/02/04 11:54:39;;;;;;;3.90;1.23;;;8.60;96.20;;;;;;4864982;29;20148;-80
2022/02/04 11:57:23;;;;;;;3.15;1.10;;;8.60;96.30;;;;;;4880503;29;20091;-80
2022/02/04 12:00:02;;;;;;;2.17;0.90;;;8.60;96.70;;;;;;4862728;29;20106;-80
2022/02/04 12:02:44;;;;;;;2.90;1.20;;;8.60;96.40;;;;;;4862323;29;20131;-78
2022/02/04 12:05:29;;;;;;;2.53;1.10;;;8.50;96.30;;;;;;4860927;29;20552;-79
2022/02/04 12:08:27;;;;;;;2.00;0.88;;;8.40;96.80;;;;;;4862863;29;20140;-79
2022/02/04 12:10:57;;;;;;;1.63;0.80;;;8.40;96.50;;;;;;4870966;29;20513;-78
2022/02/04 12:13:26;;;;;;;3.13;1.00;;;8.30;97.00;;;;;;4881760;29;20482;-79
2022/02/04 12:16:04;;;;;;;3.05;1.00;;;8.30;97.10;;;;;;4880789;29;20578;-77
2022/02/04 12:19:09;;;;;;;1.70;0.90;;;8.30;97.50;;;;;;4880193;29;20597;-81
2022/02/04 12:21:45;;;;;;;2.70;1.05;;;8.20;97.30;;;;;;4880717;29;20064;-79
2022/02/04 12:24:46;;;;;;;2.15;0.95;;;8.20;96.90;;;;;;4880613;29;20080;-80
2022/02/04 12:27:37;;;;;;;2.55;0.90;;;8.20;96.60;;;;;;4880194;29;20101;-78
2022/02/04 12:30:45;;;;;;;1.98;0.90;;;8.20;96.60;;;;;;4879689;29;20136;-78
2022/02/04 12:33:15;;;;;;;2.15;0.80;;;8.20;96.90;;;;;;4880066;29;20049;-78
2022/02/04 12:35:42;;;;;;;2.42;0.90;;;8.20;96.80;;;;;;4880388;29;20052;-78
2022/02/04 12:38:09;;;;;;;2.45;0.70;;;8.30;96.70;;;;;;4880208;29;20072;-79
2022/02/04 12:40:37;;;;;;;3.28;1.00;;;8.30;96.50;;;;;;4879884;29;20088;-80
2022/02/04 12:43:05;;;;;;;1.95;1.00;;;8.30;96.30;;;;;;4880504;29;20053;-80
2022/02/04 12:45:35;;;;;;;2.20;0.80;;;8.30;96.10;;;;;;4880540;29;20140;-77
2022/02/04 12:48:08;;;;;;;2.50;1.10;;;8.30;96.00;;;;;;4879970;29;20113;-80
2022/02/04 12:50:39;;;;;;;1.40;0.60;;;8.30;96.20;;;;;;4880222;29;20049;-80
2022/02/04 12:53:08;;;;;;;2.72;0.85;;;8.30;96.30;;;;;;4879284;29;20131;-80
2022/02/04 12:55:59;;;;;;;1.75;0.73;;;8.30;96.10;;;;;;4879822;29;20085;-79
2022/02/04 12:58:55;;;;;;;2.35;0.80;;;8.20;96.20;;;;;;4879812;29;20053;-79
2022/02/04 13:09:51;;;;;;;2.60;0.98;;;8.10;96.50;;;;;;4879497;29;20163;-80
2022/02/04 13:12:20;;;;;;;2.22;0.95;;;8.20;96.50;;;;;;4879545;29;20056;-79
2022/02/04 13:14:49;;;;;;;2.40;0.90;;;8.20;96.50;;;;;;4879522;29;20053;-80
2022/02/04 13:17:33;;;;;;;1.83;0.75;;;8.20;96.40;;;;;;4879336;29;20140;-80
2022/02/04 13:20:01;;;;;;;1.92;0.82;;;8.20;96.70;;;;;;4877891;29;20045;-80
2022/02/04 13:22:29;;;;;;;2.60;1.00;;;8.20;96.70;;;;;;4879425;29;20060;-80
2022/02/04 13:25:21;;;;;;;2.55;0.70;;;8.20;96.70;;;;;;4879321;29;20061;-78
2022/02/04 13:28:19;;;;;;;2.17;0.80;;;8.20;97.00;;;;;;4869488;29;20064;-77
2022/02/04 13:30:59;;;;;;;3.00;1.10;;;8.10;97.00;;;;;;4878575;29;20053;-77
2022/02/04 13:33:28;;;;;;;3.08;0.90;;;8.20;97.20;;;;;;4878764;29;20049;-79
2022/02/04 13:36:02;;;;;;;2.15;0.90;;;8.20;97.00;;;;;;4878941;29;20060;-79
2022/02/04 13:38:42;;;;;;;2.10;0.98;;;8.10;97.00;;;;;;4879022;29;20456;-79
2022/02/04 13:41:25;;;;;;;3.55;1.08;;;8.10;97.00;;;;;;4878252;29;20059;-80
2022/02/04 13:47:17;;;;;;;3.60;1.27;;;8.00;96.90;;;;;;4877958;29;20052;-77
2022/02/04 13:53:05;;;;;;;2.88;0.90;;;7.80;97.40;;;;;;4867540;29;20045;-76
2022/02/04 13:55:43;;;;;;;2.05;0.90;;;7.70;97.50;;;;;;4878840;29;20064;-77
2022/02/04 13:58:27;;;;;;;3.05;1.08;;;7.70;97.70;;;;;;4879439;29;20052;-78
2022/02/04 14:01:03;;;;;;;;;;;7.60;97.90;;;;;;4879510;29;20092;-77
2022/02/04 14:03:34;;;;;;;2.97;0.82;;;7.60;98.20;;;;;;4865466;29;19928;-75
2022/02/04 14:06:06;;;;;;;2.15;0.80;;;7.60;98.40;;;;;;4861126;29;20056;-77
2022/02/04 14:08:47;;;;;;;4.47;2.00;;;7.50;98.30;;;;;;4875567;29;20052;-79
2022/02/04 14:11:15;;;;;;;2.50;0.95;;;7.50;97.90;;;;;;4879357;29;20053;-79
2022/02/04 14:13:42;;;;;;;2.42;0.90;;;7.50;98.10;;;;;;4879372;29;20052;-79
2022/02/04 14:16:13;;;;;;;1.90;0.82;;;7.50;97.70;;;;;;4880282;29;20045;-79
2022/02/04 14:18:40;;;;;;;2.13;0.70;;;7.50;97.40;;;;;;4881384;29;20059;-79
2022/02/04 14:21:10;;;;;;;2.72;0.90;;;7.50;97.30;;;;;;4882061;29;20082;-76
2022/02/04 14:23:39;;;;;;;3.83;0.80;;;7.50;97.50;;;;;;4882106;29;20049;-78
2022/02/04 14:26:11;;;;;;;2.20;0.85;;;7.50;97.40;;;;;;4882175;29;20064;-81
2022/02/04 14:28:45;;;;;;;1.83;0.90;;;7.50;97.30;;;;;;4881719;29;20152;-76
2022/02/04 14:31:19;;;;;;;;;;;7.60;97.30;;;;;;4882296;29;20088;-79
2022/02/04 14:36:50;;;;;;;1.45;0.60;;;7.60;96.90;;;;;;4881436;29;20045;-78
2022/02/04 14:53:07;;;;;;;3.05;0.73;;;7.70;95.30;;;;;;4851881;29;20057;-79
2022/02/04 14:58:45;;;;;;;1.25;0.68;;;7.70;95.50;;;;;;4863996;29;20064;-79
2022/02/04 15:01:20;;;;;;;1.58;0.60;;;7.70;95.30;;;;;;4879018;29;20053;-79
2022/02/04 15:04:00;;;;;;;1.23;0.50;;;7.70;95.00;;;;;;4881137;29;20065;-77
2022/02/04 15:06:31;;;;;;;1.40;0.57;;;7.70;95.10;;;;;;4861916;29;20065;-77
2022/02/04 15:08:58;;;;;;;1.83;0.68;;;7.60;95.10;;;;;;4873746;29;20052;-79
2022/02/04 15:11:31;;;;;;;1.83;0.70;;;7.70;95.20;;;;;;4877548;29;20102;-80
2022/02/04 15:14:01;;;;;;;1.85;0.80;;;7.60;95.30;;;;;;4869628;29;20056;-78
2022/02/04 15:16:29;;;;;;;1.80;0.70;;;7.70;95.40;;;;;;4880932;29;20140;-78
2022/02/04 15:18:57;;;;;;;2.05;0.80;;;7.70;95.40;;;;;;4881196;29;20108;-79
2022/02/04 15:21:25;;;;;;;1.58;0.60;;;7.70;95.40;;;;;;4880568;29;20059;-77
2022/02/04 15:23:55;;;;;;;2.28;0.80;;;7.70;95.40;;;;;;4880817;29;20056;-77
2022/02/04 15:26:27;;;;;;;2.05;0.80;;;7.70;95.40;;;;;;4880584;29;20497;-77
2022/02/04 15:28:58;;;;;;;3.45;0.90;;;7.80;95.50;;;;;;4880650;29;20072;-79
2022/02/04 15:31:33;;;;;;;2.17;0.60;;;7.70;95.70;;;;;;4880505;29;20076;-79
2022/02/04 15:34:03;;;;;;;2.10;0.70;;;7.70;95.80;;;;;;4880277;29;20095;-78
2022/02/04 15:36:34;;;;;;;1.63;0.60;;;7.70;96.00;;;;;;4880503;29;20049;-79
2022/02/04 15:39:06;;;;;;;2.40;0.60;;;7.70;96.10;;;;;;4880429;29;20259;-79
2022/02/04 15:41:36;;;;;;;1.90;0.80;;;7.70;96.20;;;;;;4880473;29;20128;-80
2022/02/04 15:44:10;;;;;;;1.85;0.60;;;7.70;96.30;;;;;;4880476;29;20554;-77
2022/02/04 15:46:46;;;;;;;1.17;0.50;;;7.70;96.40;;;;;;4879948;29;20814;-79
2022/02/04 15:49:43;;;;;;;2.53;0.75;;;7.70;96.40;;;;;;4880347;29;20049;-79
2022/02/04 15:52:39;;;;;;;2.15;0.85;;;7.70;96.50;;;;;;4880051;29;20060;-80
2022/02/04 15:55:27;;;;;;;1.45;0.52;;;7.70;96.60;;;;;;4880029;29;20056;-77
2022/02/04 15:58:11;;;;;;;2.65;0.80;;;7.70;96.70;;;;;;4860460;29;20056;-78
2022/02/04 16:06:17;;;;;;;1.45;0.60;;;7.70;96.70;;;;;;4879993;29;20044;-78
2022/02/04 16:08:44;;;;;;;1.90;0.70;;;7.70;96.70;;;;;;4879144;29;20048;-77
2022/02/04 16:11:32;;;;;;;1.38;0.60;;;7.70;96.80;;;;;;4863383;29;20049;-76
2022/02/04 16:14:10;;;;;;;1.63;0.60;;;7.70;96.70;;;;;;4879875;29;20048;-79
2022/02/04 16:16:41;;;;;;;1.10;0.40;;;7.70;96.60;;;;;;4861394;29;20235;-78
2022/02/04 16:19:24;;;;;;;1.05;0.45;;;7.70;96.60;;;;;;4878651;29;20048;-79
2022/02/04 16:22:08;;;;;;;1.70;0.50;;;7.70;96.60;;;;;;4898640;29;20479;-79
2022/02/04 16:24:46;;;;;;;1.70;0.60;;;7.70;96.50;;;;;;4893513;29;20128;-78
2022/02/04 16:30:00;;;;;;;2.25;0.70;;;7.80;96.30;;;;;;4878478;29;20067;-79
2022/02/04 16:32:28;;;;;;;1.73;0.73;;;7.80;96.20;;;;;;4879169;29;20048;-80
2022/02/04 16:34:55;;;;;;;1.42;0.60;;;7.80;95.90;;;;;;4863183;29;20068;-80
2022/02/04 16:37:32;;;;;;;1.60;0.60;;;7.80;95.90;;;;;;4879504;29;20067;-77
2022/02/04 16:40:03;;;;;;;1.27;0.50;;;7.80;95.70;;;;;;4879168;29;20081;-77
2022/02/04 16:42:31;;;;;;;1.35;0.55;;;7.80;95.70;;;;;;4878650;29;20060;-79
2022/02/04 16:45:00;;;;;;;1.92;0.75;;;7.80;95.50;;;;;;4863709;29;20148;-76
2022/02/04 16:47:27;;;;;;;1.55;0.60;;;7.80;95.30;;;;;;4879745;29;20053;-79
2022/02/04 16:49:54;;;;;;;1.30;0.52;;;7.80;95.20;;;;;;4863096;29;20045;-79
2022/02/04 16:52:21;;;;;;;2.38;0.77;;;7.80;95.20;;;;;;4878904;29;20144;-79
2022/02/04 16:54:50;;;;;;;1.45;0.60;;;7.80;95.10;;;;;;4879438;29;20414;-78
2022/02/04 16:57:17;;;;;;;2.47;0.80;;;7.80;94.90;;;;;;4879425;29;20331;-79
2022/02/04 16:59:44;;;;;;;2.42;0.90;;;7.80;94.70;;;;;;4879578;29;20053;-77
2022/02/04 17:02:12;;;;;;;1.60;0.60;;;7.80;94.60;;;;;;4879657;29;20530;-78
2022/02/04 17:04:39;;;;;;;1.42;0.50;;;7.80;94.80;;;;;;4879236;29;20099;-78
2022/02/04 17:07:16;;;;;;;1.35;0.52;;;7.80;94.50;;;;;;4879615;29;20080;-78
2022/02/04 17:09:48;;;;;;;1.25;0.50;;;7.80;94.40;;;;;;4879709;29;20057;-78
2022/02/04 17:12:26;;;;;;;1.65;0.50;;;7.80;94.30;;;;;;4879657;29;20385;-76
2022/02/04 17:14:54;;;;;;;1.80;0.60;;;7.80;94.30;;;;;;4879171;29;20132;-79
2022/02/04 17:17:24;;;;;;;1.60;0.65;;;7.80;94.20;;;;;;4879063;29;20140;-80
2022/02/04 17:20:04;;;;;;;1.88;0.60;;;7.80;94.20;;;;;;4879137;29;20048;-81
2022/02/04 17:22:33;;;;;;;1.55;0.50;;;7.80;94.20;;;;;;4879431;29;20128;-80
2022/02/04 17:25:02;;;;;;;2.40;0.60;;;7.80;94.30;;;;;;4879217;29;20131;-81
2022/02/04 17:27:31;;;;;;;0.65;0.40;;;7.80;94.30;;;;;;4879285;29;20137;-78
2022/02/04 17:29:58;;;;;;;1.60;0.52;;;7.80;94.40;;;;;;4878884;29;20053;-80
2022/02/04 17:32:26;;;;;;;1.52;0.60;;;7.80;94.40;;;;;;4878954;29;20052;-79
2022/02/04 17:34:54;;;;;;;1.67;0.55;;;7.80;94.50;;;;;;4879306;29;20049;-79
2022/02/04 17:37:21;;;;;;;0.93;0.38;;;7.80;94.60;;;;;;4878966;29;20049;-76
2022/02/04 17:39:51;;;;;;;1.25;0.50;;;7.80;94.70;;;;;;4879132;29;20124;-77
2022/02/04 17:42:23;;;;;;;2.00;0.70;;;7.80;94.80;;;;;;4878529;29;20057;-76
2022/02/04 17:44:52;;;;;;;1.33;0.50;;;7.80;94.80;;;;;;4859762;29;20132;-78
2022/02/04 17:47:21;;;;;;;1.27;0.50;;;7.80;94.90;;;;;;4860319;29;20081;-76
2022/02/04 17:49:54;;;;;;;2.95;0.70;;;7.80;95.00;;;;;;4860614;29;20058;-74
2022/02/04 17:52:26;;;;;;;1.02;0.40;;;7.80;95.00;;;;;;4860707;29;20057;-77
2022/02/04 17:54:57;;;;;;;2.60;0.57;;;7.80;95.00;;;;;;4864098;29;20064;-77
2022/02/04 17:57:36;;;;;;;2.20;0.60;;;7.80;95.10;;;;;;4875647;29;20041;-77
2022/02/04 18:03:04;;;;;;;1.75;0.70;;;7.90;95.10;;;;;;4871936;29;20049;-78
2022/02/04 18:05:42;;;;;;;2.80;0.88;;;7.90;95.10;;;;;;4882841;29;20078;-76
2022/02/04 18:08:09;;;;;;;1.60;0.60;;;7.90;95.30;;;;;;4882775;29;20139;-75
2022/02/04 18:10:37;;;;;;;3.00;0.80;;;7.90;95.10;;;;;;4882418;29;20493;-76
2022/02/04 18:13:05;;;;;;;2.10;0.88;;;8.00;95.10;;;;;;4883411;29;20135;-77
2022/02/04 18:15:33;;;;;;;2.45;0.80;;;7.90;95.20;;;;;;4881029;29;20572;-77
2022/02/04 18:18:00;;;;;;;1.85;0.70;;;8.00;95.30;;;;;;4864027;29;20052;-77
2022/02/04 18:20:27;;;;;;;2.20;0.90;;;8.00;95.30;;;;;;4863867;29;20060;-76
2022/02/04 18:22:54;;;;;;;2.58;1.00;;;8.00;95.30;;;;;;4863634;29;20132;-74
2022/02/04 18:25:22;;;;;;;1.50;0.70;;;8.00;95.60;;;;;;4863683;29;20403;-76
2022/02/04 18:27:49;;;;;;;1.67;0.77;;;8.00;95.40;;;;;;4863854;29;20088;-75
2022/02/04 18:30:18;;;;;;;1.67;0.70;;;8.00;95.50;;;;;;4863788;29;20160;-75
2022/02/04 18:32:47;;;;;;;2.13;0.85;;;8.00;95.70;;;;;;4863664;29;20049;-74
2022/02/04 18:35:16;;;;;;;2.45;0.90;;;8.00;95.50;;;;;;4863279;29;20121;-75
2022/02/04 18:37:49;;;;;;;12.23;5.80;;;8.00;95.60;;;;;;4874124;29;20049;-76
2022/02/04 18:43:25;;;;;;;2.95;1.02;;;8.10;95.80;;;;;;4857307;29;20245;-76
2022/02/04 18:45:58;;;;;;;2.45;1.00;;;8.00;96.20;;;;;;4882127;29;20045;-76
2022/02/04 18:48:29;;;;;;;2.75;0.95;;;8.10;96.10;;;;;;4881617;29;20045;-74
2022/02/04 18:51:21;;;;;;;2.78;1.02;;;8.10;96.20;;;;;;4878792;29;20081;-77
2022/02/04 18:53:58;;;;;;;2.55;0.95;;;8.00;96.40;;;;;;4877192;29;20059;-75
2022/02/04 18:56:55;;;;;;;2.28;0.90;;;8.00;96.50;;;;;;4881171;29;20060;-73
2022/02/04 18:59:27;;;;;;;2.53;0.77;;;8.00;96.70;;;;;;4862727;29;20144;-74
2022/02/04 19:01:57;;;;;;;2.65;1.02;;;8.00;96.80;;;;;;4862709;29;20318;-74
2022/02/04 19:04:33;;;;;;;1.73;0.70;;;8.00;96.90;;;;;;4873554;29;20113;-75
2022/02/04 19:07:05;;;;;;;2.20;0.90;;;8.00;96.90;;;;;;4865964;29;20049;-77
2022/02/04 19:09:33;;;;;;;2.17;0.93;;;8.00;97.30;;;;;;4887393;29;20076;-76
2022/02/04 19:12:09;;;;;;;1.67;0.75;;;8.00;97.30;;;;;;4900637;29;20056;-75
2022/02/04 19:14:46;;;;;;;2.47;0.85;;;8.00;97.30;;;;;;4900306;29;20051;-76
2022/02/04 19:17:18;;;;;;;1.92;0.90;;;8.00;97.50;;;;;;4881971;29;20496;-76
2022/02/04 19:19:53;;;;;;;1.92;0.73;;;8.10;97.50;;;;;;4880199;29;20056;-76
2022/02/04 19:22:30;;;;;;;;;;;8.10;97.50;;;;;;4881641;29;20393;-75
2022/02/04 19:25:01;;;;;;;1.70;0.70;;;8.10;97.50;;;;;;4867526;29;19923;-75
2022/02/04 19:27:29;;;;;;;2.25;0.90;;;8.20;97.40;;;;;;4881716;29;20087;-76
2022/02/04 19:29:58;;;;;;;1.27;0.60;;;8.20;97.60;;;;;;4881401;29;20056;-75
2022/02/04 19:32:26;;;;;;;2.42;0.80;;;8.20;97.60;;;;;;4880823;29;20468;-77
2022/02/04 19:34:55;;;;;;;2.20;0.90;;;8.20;97.70;;;;;;4880400;29;20488;-76
2022/02/04 19:37:23;;;;;;;2.00;0.95;;;8.20;97.80;;;;;;4879783;29;20139;-75
2022/02/04 19:39:51;;;;;;;1.83;0.70;;;8.20;97.90;;;;;;4879764;29;20105;-78
2022/02/04 19:42:25;;;;;;;2.13;0.90;;;8.20;98.00;;;;;;4881783;29;20088;-75
2022/02/04 19:44:57;;;;;;;2.40;1.00;;;8.20;98.10;;;;;;4878763;29;20101;-76
2022/02/04 19:47:29;;;;;;;2.75;1.05;;;8.20;98.20;;;;;;4880338;29;20056;-78
2022/02/04 19:50:14;;;;;;;2.15;0.98;;;8.20;98.30;;;;;;4880894;29;20487;-76
2022/02/04 19:53:08;;;;;;;2.47;0.90;;;8.20;98.20;;;;;;4881165;29;20072;-74
2022/02/04 20:06:41;;;;;;;2.45;0.90;;;8.20;98.30;;;;;;4880625;29;20056;-75
2022/02/04 20:07:28;;;;;;;6.18;3.00;;;8.20;98.50;;;;;;4861736;29;20068;-76
2022/02/04 20:27:05;;;;;;;3.13;1.10;;;8.20;99.00;;;;;;5033165;28;20049;-77
2022/02/04 20:29:32;;;;;;;3.03;0.90;;;8.20;99.30;;;;;;5097402;28;20075;-76
2022/02/04 20:32:00;;;;;;;2.08;0.80;;;8.20;99.10;;;;;;5130697;28;20083;-78
2022/02/04 20:34:28;;;;;;;2.38;0.95;;;8.20;99.30;;;;;;5131296;28;20130;-74
2022/02/04 20:36:55;;;;;;;2.92;0.90;;;8.20;99.10;;;;;;5130675;28;20101;-78
2022/02/04 20:39:29;;;;;;;2.35;0.85;;;8.20;99.10;;;;;;5131240;28;20122;-76
2022/02/04 20:41:56;;;;;;;1.87;0.80;;;8.20;99.10;;;;;;5131013;28;20047;-77
2022/02/04 20:44:28;;;;;;;2.28;1.00;;;8.20;99.20;;;;;;5131200;28;20049;-76
2022/02/04 20:46:55;;;;;;;2.58;1.02;;;8.20;99.30;;;;;;5130393;28;20051;-77
2022/02/04 20:49:24;;;;;;;3.00;1.00;;;8.20;99.30;;;;;;5127711;28;20126;-79
2022/02/04 20:51:51;;;;;;;2.50;1.00;;;8.20;99.30;;;;;;5111103;28;20058;-73
2022/02/04 20:54:18;;;;;;;3.50;1.48;;;8.20;99.60;;;;;;5109655;28;20044;-74
2022/02/04 20:56:45;;;;;;;4.32;1.80;;;8.20;99.60;;;;;;5109880;28;20147;-77
2022/02/04 20:59:12;;;;;;;2.35;0.93;;;8.30;99.40;;;;;;5109784;28;20048;-75
2022/02/04 21:01:39;;;;;;;2.63;0.90;;;8.30;99.40;;;;;;5121021;28;20069;-76
2022/02/04 21:04:09;;;;;;;3.45;1.45;;;8.30;99.30;;;;;;5129748;28;20139;-78
2022/02/04 21:06:52;;;;;;;2.45;1.00;;;8.30;99.30;;;;;;5124739;28;20046;-75
2022/02/04 21:15:04;;;;;;;2.55;1.02;;;8.30;99.20;;;;;;5129737;28;20058;-76
2022/02/04 21:17:36;;;;;;;1.63;0.65;;;8.30;99.30;;;;;;5130188;28;20039;-75
2022/02/04 21:20:06;;;;;;;1.63;0.70;;;8.30;99.30;;;;;;5130164;28;20051;-75
2022/02/04 21:22:36;;;;;;;1.88;0.77;;;8.30;99.30;;;;;;5130223;28;20067;-76
2022/02/04 21:25:05;;;;;;;2.60;0.90;;;8.40;99.30;;;;;;5128841;28;20047;-76
2022/02/04 21:27:35;;;;;;;2.13;0.80;;;8.40;99.40;;;;;;5116890;28;20392;-77
2022/02/04 21:30:04;;;;;;;2.60;1.02;;;8.40;99.10;;;;;;5116342;28;20047;-76
2022/02/04 21:32:31;;;;;;;1.90;0.80;;;8.40;99.10;;;;;;5116341;28;20052;-75
2022/02/04 21:37:44;;;;;;;2.30;0.80;;;8.50;99.00;;;;;;5116275;28;20506;-74
2022/02/04 21:40:11;;;;;;;2.30;0.85;;;8.50;98.90;;;;;;5116189;28;20406;-75
2022/02/04 21:42:38;;;;;;;2.33;0.90;;;8.50;98.90;;;;;;5115539;28;20130;-76
2022/02/04 21:45:06;;;;;;;2.53;0.90;;;8.50;99.00;;;;;;5112772;28;20044;-75
2022/02/04 21:47:43;;;;;;;2.65;1.00;;;8.50;99.10;;;;;;5094977;28;20048;-74
2022/02/04 21:50:11;;;;;;;2.35;1.02;;;8.50;99.20;;;;;;5094157;28;20044;-74
2022/02/04 21:52:38;;;;;;;2.80;0.90;;;8.50;99.40;;;;;;5094874;28;20130;-77
2022/02/04 21:55:08;;;;;;;2.10;0.90;;;8.50;99.50;;;;;;5095507;28;20131;-76
2022/02/04 21:57:35;;;;;;;2.80;0.90;;;8.50;99.60;;;;;;5095284;28;20397;-75
2022/02/04 22:00:05;;;;;;;2.50;0.80;;;8.50;99.70;;;;;;5095587;28;20044;-76
2022/02/04 22:02:32;;;;;;;2.33;0.98;;;8.50;99.80;;;;;;5095584;28;20044;-75
2022/02/04 22:05:02;;;;;;;2.15;0.90;;;8.50;99.90;;;;;;5095381;28;20084;-77
2022/02/04 22:07:36;;;;;;;2.40;1.00;;;8.50;99.90;;;;;;5095130;28;20059;-75
2022/02/04 22:10:19;;;;;;;2.58;1.00;;;8.50;99.90;;;;;;5095083;28;20134;-77
2022/02/04 22:13:13;;;;;;;2.80;0.98;;;8.50;99.90;;;;;;5095393;28;20083;-74
2022/02/04 22:23:56;;;;;;;1.77;0.70;;;8.40;99.90;;;;;;5094734;28;20546;-76
2022/02/04 22:26:26;;;;;;;2.67;0.70;;;8.30;99.90;;;;;;5095091;28;20066;-75
2022/02/04 22:28:54;;;;;;;2.20;0.60;;;8.20;99.90;;;;;;5094990;28;20044;-76
2022/02/04 22:31:23;;;;;;;2.30;0.60;;;8.00;99.90;;;;;;5094503;28;20385;-76
2022/02/04 22:33:58;;;;;;;1.42;0.60;;;7.80;99.90;;;;;;5094674;28;20044;-77
2022/02/04 22:36:55;;;;;;;1.30;0.43;;;7.60;99.90;;;;;;5094453;28;20076;-74